Time;durP1;ratioP1;P1;durP2;ratioP2;P2;SDS_P1;SDS_P2;PMS_P1;PMS_P2;Temp;Humidity;BMP_temperature;BMP_pressure;BME280_temperature;BME280_humidity;BME280_pressure;Samples;Min_cycle;Max_cycle;Signal;HPM_P1;HPM_P2
2020/12/17 00:01:07;;;;;;;4.55;4.15;;;;;;;;;;5095484;28;20243;-62
2020/12/17 00:03:33;;;;;;;4.63;4.22;;;;;;;;;;5096180;28;20463;-62
2020/12/17 00:05:59;;;;;;;5.25;4.05;;;;;;;;;;5094153;28;20565;-62
2020/12/17 00:08:25;;;;;;;4.50;3.95;;;;;;;;;;5093249;28;20235;-62
2020/12/17 00:10:51;;;;;;;4.60;4.00;;;;;;;;;;5077269;28;20536;-62
2020/12/17 00:13:18;;;;;;;5.07;3.90;;;;;;;;;;5082252;28;20233;-62
2020/12/17 00:15:44;;;;;;;4.63;4.00;;;;;;;;;;5074669;28;20185;-62
2020/12/17 00:18:10;;;;;;;5.00;4.18;;;;;;;;;;5075536;28;20537;-62
2020/12/17 00:20:36;;;;;;;4.88;4.32;;;;;;;;;;5094671;28;20188;-62
2020/12/17 00:23:02;;;;;;;4.28;3.88;;;;;;;;;;5095048;28;20271;-62
2020/12/17 00:25:28;;;;;;;4.30;3.90;;;;;;;;;;5095163;28;20227;-62
2020/12/17 00:27:54;;;;;;;4.40;4.00;;;;;;;;;;5087985;28;20189;-62
2020/12/17 00:30:20;;;;;;;6.63;4.30;;;;;;;;;;5094724;28;20185;-62
2020/12/17 00:32:46;;;;;;;4.38;3.97;;;;;;;;;;5094799;28;20197;-62
2020/12/17 00:35:13;;;;;;;4.13;3.67;;;;;;;;;;5094789;28;20192;-62
2020/12/17 00:37:39;;;;;;;4.38;3.97;;;;;;;;;;5079713;28;20599;-62
2020/12/17 00:40:06;;;;;;;3.97;3.58;;;;;;;;;;5088293;28;20194;-62
2020/12/17 00:42:32;;;;;;;4.43;4.03;;;;;;;;;;5107600;28;20196;-62
2020/12/17 00:44:58;;;;;;;4.60;4.20;;;;;;;;;;5095103;28;20185;-62
2020/12/17 00:47:33;;;;;;;4.22;3.80;;;;;;;;;;5094007;28;20460;-62
2020/12/17 00:49:59;;;;;;;4.28;3.88;;;;;;;;;;5092896;28;20181;-62
2020/12/17 00:52:25;;;;;;;4.70;3.97;;;;;;;;;;5095118;28;20203;-62
2020/12/17 00:54:51;;;;;;;4.30;3.90;;;;;;;;;;5094119;28;20205;-62
2020/12/17 00:57:17;;;;;;;4.25;3.75;;;;;;;;;;5095268;28;20170;-62
2020/12/17 00:59:43;;;;;;;5.05;3.88;;;;;;;;;;5089591;28;20544;-62
2020/12/17 01:02:09;;;;;;;4.15;3.65;;;;;;;;;;5084795;28;20255;-62
2020/12/17 01:04:35;;;;;;;4.30;3.90;;;;;;;;;;5092259;28;20441;-61
2020/12/17 01:07:02;;;;;;;3.72;3.42;;;;;;;;;;5095575;28;20565;-61
2020/12/17 01:09:28;;;;;;;4.05;3.65;;;;;;;;;;5081182;28;20179;-61
2020/12/17 01:11:53;;;;;;;4.40;3.72;;;;;;;;;;5081853;28;20213;-61
2020/12/17 01:14:20;;;;;;;3.75;3.28;;;;;;;;;;5082335;28;20205;-61
2020/12/17 01:16:49;;;;;;;4.40;4.00;;;;;;;;;;5096917;28;20220;-61
2020/12/17 01:19:15;;;;;;;3.58;3.28;;;;;;;;;;5099272;28;20700;-61
2020/12/17 01:21:41;;;;;;;4.05;3.67;;;;;;;;;;5093716;28;20194;-61
2020/12/17 01:24:07;;;;;;;4.00;3.70;;;;;;;;;;5078005;28;20190;-61
2020/12/17 01:26:33;;;;;;;4.97;3.58;;;;;;;;;;5079282;28;20232;-61
2020/12/17 01:28:59;;;;;;;4.60;3.85;;;;;;;;;;5078581;28;20174;-61
2020/12/17 01:31:25;;;;;;;4.03;3.60;;;;;;;;;;5096024;28;20202;-62
2020/12/17 01:33:51;;;;;;;3.83;3.40;;;;;;;;;;5099001;28;20726;-61
2020/12/17 01:36:16;;;;;;;3.95;3.55;;;;;;;;;;5098258;28;20174;-62
2020/12/17 01:38:42;;;;;;;3.67;3.35;;;;;;;;;;5098733;28;20177;-62
2020/12/17 01:41:12;;;;;;;5.35;3.53;;;;;;;;;;5094993;28;20574;-62
2020/12/17 01:43:42;;;;;;;4.18;3.58;;;;;;;;;;5091983;28;20233;-62
2020/12/17 01:46:08;;;;;;;3.85;3.50;;;;;;;;;;5097705;28;20170;-62
2020/12/17 01:48:35;;;;;;;3.58;3.28;;;;;;;;;;5098784;28;20488;-62
2020/12/17 01:51:02;;;;;;;3.63;3.30;;;;;;;;;;5098312;28;20200;-62
2020/12/17 01:53:28;;;;;;;4.07;3.78;;;;;;;;;;5096875;28;20213;-62
2020/12/17 01:55:56;;;;;;;3.78;3.38;;;;;;;;;;5097870;28;20318;-62
2020/12/17 01:58:24;;;;;;;3.90;3.47;;;;;;;;;;5093661;28;20200;-62
2020/12/17 02:00:53;;;;;;;3.40;3.00;;;;;;;;;;5083292;28;20196;-62
2020/12/17 02:03:19;;;;;;;3.47;3.03;;;;;;;;;;5095939;28;20200;-62
2020/12/17 02:05:45;;;;;;;3.83;3.33;;;;;;;;;;5097642;28;20185;-62
2020/12/17 02:08:12;;;;;;;3.33;3.03;;;;;;;;;;5096409;28;20186;-61
2020/12/17 02:10:38;;;;;;;3.30;3.00;;;;;;;;;;5089369;28;20214;-62
2020/12/17 02:13:04;;;;;;;3.67;3.25;;;;;;;;;;5079635;28;20209;-62
2020/12/17 02:15:30;;;;;;;4.05;3.50;;;;;;;;;;5085595;28;20182;-62
2020/12/17 02:17:56;;;;;;;3.03;2.80;;;;;;;;;;5097642;28;20192;-62
2020/12/17 02:20:22;;;;;;;3.70;3.40;;;;;;;;;;5097423;28;20256;-62
2020/12/17 02:22:48;;;;;;;3.05;2.85;;;;;;;;;;5097697;28;20182;-62
2020/12/17 02:25:14;;;;;;;3.53;3.10;;;;;;;;;;5096777;28;20189;-62
2020/12/17 02:27:41;;;;;;;3.47;3.17;;;;;;;;;;5097499;28;20201;-62
2020/12/17 02:30:08;;;;;;;3.38;3.00;;;;;;;;;;5097614;28;20181;-62
2020/12/17 02:32:34;;;;;;;3.15;2.90;;;;;;;;;;5085897;28;20214;-61
2020/12/17 02:35:00;;;;;;;3.03;2.78;;;;;;;;;;5076947;28;20179;-61
2020/12/17 02:37:26;;;;;;;3.33;3.03;;;;;;;;;;5077846;28;20173;-61
2020/12/17 02:39:52;;;;;;;2.80;2.60;;;;;;;;;;5082817;28;20170;-61
2020/12/17 02:42:18;;;;;;;3.38;3.08;;;;;;;;;;5105759;28;20480;-62
2020/12/17 02:44:44;;;;;;;2.60;2.40;;;;;;;;;;5096627;28;20192;-62
2020/12/17 02:47:10;;;;;;;2.80;2.60;;;;;;;;;;5097249;28;20178;-62
2020/12/17 02:49:36;;;;;;;2.85;2.55;;;;;;;;;;5097639;28;20174;-62
2020/12/17 02:52:02;;;;;;;2.75;2.55;;;;;;;;;;5084870;28;20201;-62
2020/12/17 02:54:28;;;;;;;2.83;2.60;;;;;;;;;;5087990;28;20184;-62
2020/12/17 02:56:54;;;;;;;2.95;2.70;;;;;;;;;;5097397;28;20292;-62
2020/12/17 02:59:20;;;;;;;2.83;2.63;;;;;;;;;;5096805;28;20849;-62
2020/12/17 03:01:46;;;;;;;2.70;2.45;;;;;;;;;;5095938;28;20272;-62
2020/12/17 03:04:12;;;;;;;3.05;2.75;;;;;;;;;;5097004;28;20186;-62
2020/12/17 03:06:38;;;;;;;2.42;2.22;;;;;;;;;;5091713;28;20181;-62
2020/12/17 03:09:05;;;;;;;2.95;2.70;;;;;;;;;;5097106;28;20189;-62
2020/12/17 03:11:31;;;;;;;2.65;2.38;;;;;;;;;;5084487;28;20202;-62
2020/12/17 03:13:57;;;;;;;2.50;2.30;;;;;;;;;;5076520;28;20175;-62
2020/12/17 03:16:23;;;;;;;2.50;2.30;;;;;;;;;;5075053;28;20220;-62
2020/12/17 03:18:49;;;;;;;2.50;2.30;;;;;;;;;;5079377;28;20181;-62
2020/12/17 03:21:15;;;;;;;2.60;2.40;;;;;;;;;;5086446;28;20179;-62
2020/12/17 03:23:41;;;;;;;2.70;2.50;;;;;;;;;;5076193;28;20569;-62
2020/12/17 03:26:08;;;;;;;2.88;2.67;;;;;;;;;;5083234;28;20203;-62
2020/12/17 03:28:34;;;;;;;2.63;2.42;;;;;;;;;;5096738;28;20553;-62
2020/12/17 03:31:00;;;;;;;4.05;2.60;;;;;;;;;;5088692;28;20577;-62
2020/12/17 03:33:26;;;;;;;2.42;2.22;;;;;;;;;;5082799;28;20194;-62
2020/12/17 03:35:52;;;;;;;2.47;2.28;;;;;;;;;;5085382;28;20185;-62
2020/12/17 03:38:18;;;;;;;2.50;2.30;;;;;;;;;;5096920;28;20567;-62
2020/12/17 03:40:44;;;;;;;2.80;2.33;;;;;;;;;;5096316;28;20261;-62
2020/12/17 03:43:10;;;;;;;2.65;2.45;;;;;;;;;;5115978;28;20188;-62
2020/12/17 03:45:36;;;;;;;2.97;2.50;;;;;;;;;;5112234;28;20244;-62
2020/12/17 03:48:03;;;;;;;3.28;2.50;;;;;;;;;;5095641;28;20218;-62
2020/12/17 03:50:29;;;;;;;2.30;2.10;;;;;;;;;;5093172;28;20565;-62
2020/12/17 03:52:55;;;;;;;2.25;2.10;;;;;;;;;;5075611;28;20854;-62
2020/12/17 03:55:20;;;;;;;2.42;2.22;;;;;;;;;;5089868;28;20220;-62
2020/12/17 03:57:46;;;;;;;2.50;2.30;;;;;;;;;;5075994;28;20170;-62
2020/12/17 04:00:13;;;;;;;2.60;2.40;;;;;;;;;;5085433;28;20185;-62
2020/12/17 04:02:39;;;;;;;2.33;2.00;;;;;;;;;;5077229;28;20269;-62
2020/12/17 04:05:05;;;;;;;2.55;2.35;;;;;;;;;;5075400;28;20265;-62
2020/12/17 04:07:31;;;;;;;2.30;2.10;;;;;;;;;;5080369;28;20193;-62
2020/12/17 04:09:56;;;;;;;2.30;2.10;;;;;;;;;;5095424;28;20192;-62
2020/12/17 04:12:22;;;;;;;2.30;2.10;;;;;;;;;;5095447;28;20206;-62
2020/12/17 04:14:48;;;;;;;2.13;1.92;;;;;;;;;;5092655;28;20468;-62
2020/12/17 04:17:14;;;;;;;2.47;2.10;;;;;;;;;;5094965;28;20257;-62
2020/12/17 04:19:40;;;;;;;2.67;2.47;;;;;;;;;;5096123;28;20516;-62
2020/12/17 04:22:07;;;;;;;2.83;2.28;;;;;;;;;;5062633;28;20232;-62
2020/12/17 04:24:33;;;;;;;2.40;2.20;;;;;;;;;;5079240;28;20213;-62
2020/12/17 04:26:58;;;;;;;2.35;2.10;;;;;;;;;;5095106;28;20205;-62
2020/12/17 04:29:25;;;;;;;2.65;2.33;;;;;;;;;;5079976;28;20222;-62
2020/12/17 04:31:52;;;;;;;2.15;1.95;;;;;;;;;;5087636;28;20308;-62
2020/12/17 04:34:18;;;;;;;2.38;2.15;;;;;;;;;;5095087;28;20592;-62
2020/12/17 04:36:44;;;;;;;2.55;2.35;;;;;;;;;;5095362;28;20181;-63
2020/12/17 04:39:11;;;;;;;2.22;1.92;;;;;;;;;;5095614;28;20201;-61
2020/12/17 04:41:38;;;;;;;2.17;2.03;;;;;;;;;;5089077;28;20265;-61
2020/12/17 04:44:04;;;;;;;2.70;2.47;;;;;;;;;;5074607;28;20186;-61
2020/12/17 04:46:31;;;;;;;1.80;1.70;;;;;;;;;;5075523;28;20175;-62
2020/12/17 04:48:59;;;;;;;2.55;2.35;;;;;;;;;;5075040;28;20495;-63
2020/12/17 04:51:25;;;;;;;2.20;2.00;;;;;;;;;;5088405;28;20181;-61
2020/12/17 04:53:51;;;;;;;2.28;2.08;;;;;;;;;;5095396;28;20507;-61
2020/12/17 04:56:19;;;;;;;2.20;2.00;;;;;;;;;;5076817;28;20181;-61
2020/12/17 04:58:49;;;;;;;2.33;2.00;;;;;;;;;;5089660;28;20788;-61
2020/12/17 05:01:16;;;;;;;2.00;1.90;;;;;;;;;;5087151;28;20243;-61
2020/12/17 05:03:48;;;;;;;2.10;1.90;;;;;;;;;;5090696;28;20181;-61
2020/12/17 05:06:24;;;;;;;2.08;1.98;;;;;;;;;;5094108;28;20173;-61
2020/12/17 05:08:51;;;;;;;2.15;1.95;;;;;;;;;;5093826;28;20205;-60
2020/12/17 05:11:17;;;;;;;2.13;1.92;;;;;;;;;;5087133;28;20193;-61
2020/12/17 05:13:43;;;;;;;2.00;1.90;;;;;;;;;;5095391;28;20181;-60
2020/12/17 05:16:09;;;;;;;2.13;1.92;;;;;;;;;;5095165;28;20196;-60
2020/12/17 05:18:35;;;;;;;2.50;2.10;;;;;;;;;;5093470;28;20675;-60
2020/12/17 05:21:01;;;;;;;1.80;1.70;;;;;;;;;;5094647;28;20190;-60
2020/12/17 05:23:27;;;;;;;2.13;1.77;;;;;;;;;;5087778;28;20204;-60
2020/12/17 05:25:53;;;;;;;2.10;1.90;;;;;;;;;;5089610;28;20190;-60
2020/12/17 05:28:19;;;;;;;2.35;1.88;;;;;;;;;;5095243;28;20169;-60
2020/12/17 05:30:45;;;;;;;2.97;2.20;;;;;;;;;;5094094;28;20193;-60
2020/12/17 05:33:11;;;;;;;4.05;2.40;;;;;;;;;;5095167;28;20285;-60
2020/12/17 05:35:39;;;;;;;5.50;2.78;;;;;;;;;;5094852;28;20205;-60
2020/12/17 05:38:06;;;;;;;4.80;2.58;;;;;;;;;;5086482;28;20189;-60
2020/12/17 05:40:36;;;;;;;6.95;2.78;;;;;;;;;;5082013;28;20263;-60
2020/12/17 05:43:02;;;;;;;6.15;2.42;;;;;;;;;;5074770;28;20237;-60
2020/12/17 05:45:29;;;;;;;8.68;2.72;;;;;;;;;;5074268;28;20179;-60
2020/12/17 05:48:07;;;;;;;6.40;2.42;;;;;;;;;;5074465;28;20178;-59
2020/12/17 05:50:34;;;;;;;10.27;2.83;;;;;;;;;;5081515;28;20184;-60
2020/12/17 05:53:02;;;;;;;6.63;2.75;;;;;;;;;;5080831;28;20206;-60
2020/12/17 05:55:30;;;;;;;6.93;3.05;;;;;;;;;;5074006;28;20577;-60
2020/12/17 05:57:56;;;;;;;4.40;2.53;;;;;;;;;;5083475;28;20178;-60
2020/12/17 06:00:22;;;;;;;8.10;3.13;;;;;;;;;;5095417;28;20745;-60
2020/12/17 06:02:48;;;;;;;8.45;2.88;;;;;;;;;;5097624;28;20260;-60
2020/12/17 06:05:16;;;;;;;6.10;2.85;;;;;;;;;;5096498;28;20178;-60
2020/12/17 06:07:48;;;;;;;4.97;2.35;;;;;;;;;;5097496;28;20280;-60
2020/12/17 06:10:20;;;;;;;5.55;2.13;;;;;;;;;;5097731;28;20456;-60
2020/12/17 06:12:47;;;;;;;5.32;2.70;;;;;;;;;;5097765;28;21735;-60
2020/12/17 06:15:18;;;;;;;4.80;2.65;;;;;;;;;;5097409;28;20456;-60
2020/12/17 06:17:44;;;;;;;5.40;2.60;;;;;;;;;;5096494;28;20185;-60
2020/12/17 06:20:10;;;;;;;6.32;2.65;;;;;;;;;;5096300;28;20271;-60
2020/12/17 06:22:36;;;;;;;5.30;2.47;;;;;;;;;;5097438;28;20588;-60
2020/12/17 06:25:03;;;;;;;5.25;2.50;;;;;;;;;;5097496;28;20177;-60
2020/12/17 06:27:30;;;;;;;4.57;2.80;;;;;;;;;;5097978;28;20181;-60
2020/12/17 06:30:04;;;;;;;4.88;2.70;;;;;;;;;;5094812;28;20274;-60
2020/12/17 06:32:30;;;;;;;5.00;2.78;;;;;;;;;;5077986;28;20276;-60
2020/12/17 06:34:58;;;;;;;5.10;2.47;;;;;;;;;;5086832;28;20561;-60
2020/12/17 06:37:24;;;;;;;7.18;2.42;;;;;;;;;;5097849;28;20170;-60
2020/12/17 06:39:50;;;;;;;3.10;2.10;;;;;;;;;;5095865;28;20177;-61
2020/12/17 06:42:35;;;;;;;3.00;2.40;;;;;;;;;;5105641;28;20436;-61
2020/12/17 06:45:01;;;;;;;4.63;2.30;;;;;;;;;;5104924;28;20198;-61
2020/12/17 06:47:29;;;;;;;4.68;2.42;;;;;;;;;;5086166;28;20189;-61
2020/12/17 06:49:55;;;;;;;3.72;2.38;;;;;;;;;;5082558;28;20186;-61
2020/12/17 06:52:22;;;;;;;3.13;2.20;;;;;;;;;;5097424;28;20196;-61
2020/12/17 06:54:48;;;;;;;3.00;2.10;;;;;;;;;;5096729;28;20177;-61
2020/12/17 06:57:16;;;;;;;4.07;2.45;;;;;;;;;;5097324;28;20249;-61
2020/12/17 06:59:43;;;;;;;3.65;2.58;;;;;;;;;;5096190;28;20190;-61
2020/12/17 07:02:09;;;;;;;4.80;2.42;;;;;;;;;;5092983;28;20512;-61
2020/12/17 07:04:43;;;;;;;4.32;2.42;;;;;;;;;;5076674;28;20185;-61
2020/12/17 07:07:12;;;;;;;3.05;2.35;;;;;;;;;;5076848;28;20236;-61
2020/12/17 07:09:38;;;;;;;4.57;2.17;;;;;;;;;;5076446;28;20616;-61
2020/12/17 07:12:04;;;;;;;3.42;2.30;;;;;;;;;;5094350;28;20259;-61
2020/12/17 07:14:30;;;;;;;3.17;2.33;;;;;;;;;;5096216;28;20197;-61
2020/12/17 07:17:00;;;;;;;2.70;2.30;;;;;;;;;;5089573;28;20175;-60
2020/12/17 07:19:30;;;;;;;3.28;2.30;;;;;;;;;;5076806;28;20171;-61
2020/12/17 07:22:01;;;;;;;2.95;2.00;;;;;;;;;;5094407;28;20197;-61
2020/12/17 07:24:28;;;;;;;2.65;2.05;;;;;;;;;;5096087;28;20508;-61
2020/12/17 07:26:54;;;;;;;3.28;2.08;;;;;;;;;;5095899;28;20185;-61
2020/12/17 07:29:29;;;;;;;3.17;2.17;;;;;;;;;;5083641;28;20644;-61
2020/12/17 07:31:55;;;;;;;3.38;2.25;;;;;;;;;;5079987;28;20205;-61
2020/12/17 07:34:21;;;;;;;4.68;2.40;;;;;;;;;;5076205;28;20189;-61
2020/12/17 07:36:47;;;;;;;6.05;2.60;;;;;;;;;;5075889;28;20178;-61
2020/12/17 07:39:14;;;;;;;2.95;2.10;;;;;;;;;;5077006;28;20236;-61
2020/12/17 07:41:40;;;;;;;2.78;2.40;;;;;;;;;;5091987;28;20235;-61
2020/12/17 07:44:06;;;;;;;3.25;2.40;;;;;;;;;;5095798;28;20266;-61
2020/12/17 07:46:37;;;;;;;3.15;2.42;;;;;;;;;;5077826;28;20606;-61
2020/12/17 07:49:19;;;;;;;3.58;2.45;;;;;;;;;;5075949;28;20200;-61
2020/12/17 07:51:45;;;;;;;3.75;2.40;;;;;;;;;;5091197;28;20206;-61
2020/12/17 07:54:11;;;;;;;3.25;2.20;;;;;;;;;;5094998;28;20191;-61
2020/12/17 07:56:37;;;;;;;2.63;2.10;;;;;;;;;;5096299;28;20232;-61
2020/12/17 07:59:05;;;;;;;2.88;2.13;;;;;;;;;;5095357;28;20182;-61
2020/12/17 08:01:31;;;;;;;2.78;2.15;;;;;;;;;;5095263;28;20443;-61
2020/12/17 08:03:57;;;;;;;3.58;2.40;;;;;;;;;;5090034;28;20205;-61
2020/12/17 08:06:24;;;;;;;3.38;2.35;;;;;;;;;;5084927;28;20194;-61
2020/12/17 08:08:55;;;;;;;3.70;2.40;;;;;;;;;;5075395;28;20534;-61
2020/12/17 08:11:21;;;;;;;3.30;2.38;;;;;;;;;;5087806;28;20189;-61
2020/12/17 08:13:47;;;;;;;3.88;2.20;;;;;;;;;;5086323;28;20585;-61
2020/12/17 08:16:13;;;;;;;2.42;2.13;;;;;;;;;;5074888;28;20179;-61
2020/12/17 08:18:39;;;;;;;5.57;2.50;;;;;;;;;;5075579;28;20179;-61
2020/12/17 08:21:09;;;;;;;2.90;1.90;;;;;;;;;;5085175;28;20192;-61
2020/12/17 08:23:37;;;;;;;3.97;2.30;;;;;;;;;;5094807;28;20190;-61
2020/12/17 08:26:03;;;;;;;3.78;2.10;;;;;;;;;;5094266;28;20186;-61
2020/12/17 08:28:30;;;;;;;7.70;3.08;;;;;;;;;;5095469;28;20589;-61
2020/12/17 08:31:03;;;;;;;3.78;2.33;;;;;;;;;;5088024;28;20190;-61
2020/12/17 08:33:29;;;;;;;3.00;2.22;;;;;;;;;;5090868;28;20202;-61
2020/12/17 08:36:05;;;;;;;3.17;2.30;;;;;;;;;;5076867;28;20286;-61
2020/12/17 08:38:31;;;;;;;3.95;2.42;;;;;;;;;;5095741;28;20181;-61
2020/12/17 08:40:58;;;;;;;3.63;2.33;;;;;;;;;;5097853;28;20173;-61
2020/12/17 08:43:27;;;;;;;23.58;6.22;;;;;;;;;;5115795;28;20177;-61
2020/12/17 08:45:53;;;;;;;83.75;17.55;;;;;;;;;;5083084;28;20193;-61
2020/12/17 08:48:19;;;;;;;113.53;21.90;;;;;;;;;;5095894;28;20572;-61
2020/12/17 08:50:47;;;;;;;78.97;19.02;;;;;;;;;;5088086;28;20232;-61
2020/12/17 08:53:19;;;;;;;82.25;18.35;;;;;;;;;;5079947;28;20229;-61
2020/12/17 08:56:00;;;;;;;82.28;17.20;;;;;;;;;;5094944;28;20169;-61
2020/12/17 08:58:26;;;;;;;70.45;17.85;;;;;;;;;;5081785;28;20309;-61
2020/12/17 09:00:52;;;;;;;74.47;16.80;;;;;;;;;;5081627;28;20178;-61
2020/12/17 09:03:19;;;;;;;59.00;16.75;;;;;;;;;;5093687;28;20240;-61
2020/12/17 09:05:59;;;;;;;56.35;16.10;;;;;;;;;;5087579;28;20682;-61
2020/12/17 09:08:25;;;;;;;63.17;15.95;;;;;;;;;;5074347;28;20178;-61
2020/12/17 09:10:51;;;;;;;68.40;15.73;;;;;;;;;;5080708;28;20204;-61
2020/12/17 09:13:19;;;;;;;60.65;15.55;;;;;;;;;;5095119;28;20202;-61
2020/12/17 09:15:45;;;;;;;65.25;15.65;;;;;;;;;;5082031;28;20178;-61
2020/12/17 09:18:11;;;;;;;64.65;15.80;;;;;;;;;;5075215;28;20227;-61
2020/12/17 09:20:37;;;;;;;53.83;15.07;;;;;;;;;;5089648;28;20541;-61
2020/12/17 09:23:09;;;;;;;50.75;15.15;;;;;;;;;;5076503;28;20201;-61
2020/12/17 09:25:35;;;;;;;47.08;14.35;;;;;;;;;;5084826;28;20189;-61
2020/12/17 09:28:01;;;;;;;52.40;15.73;;;;;;;;;;5094916;28;20193;-61
2020/12/17 09:30:32;;;;;;;48.72;13.98;;;;;;;;;;5095152;28;20577;-61
2020/12/17 09:33:00;;;;;;;47.85;13.80;;;;;;;;;;5094952;28;20196;-61
2020/12/17 09:35:30;;;;;;;44.70;13.10;;;;;;;;;;5089922;28;20202;-61
2020/12/17 09:37:58;;;;;;;43.63;13.10;;;;;;;;;;5079842;28;20182;-61
2020/12/17 09:40:24;;;;;;;43.55;12.85;;;;;;;;;;5078888;28;20174;-61
2020/12/17 09:43:01;;;;;;;43.30;13.48;;;;;;;;;;5115424;28;20266;-61
2020/12/17 09:45:27;;;;;;;41.75;12.40;;;;;;;;;;5101856;28;20627;-61
2020/12/17 09:47:53;;;;;;;41.25;12.20;;;;;;;;;;5098567;28;20178;-61
2020/12/17 09:50:19;;;;;;;38.28;12.30;;;;;;;;;;5098608;28;20580;-61
2020/12/17 09:52:45;;;;;;;36.83;11.20;;;;;;;;;;5080239;28;20284;-61
2020/12/17 09:55:13;;;;;;;33.75;11.35;;;;;;;;;;5077899;28;20186;-61
2020/12/17 09:57:40;;;;;;;40.80;12.07;;;;;;;;;;5078491;28;20178;-61
2020/12/17 10:00:08;;;;;;;33.65;11.70;;;;;;;;;;5078239;28;20254;-61
2020/12/17 10:02:34;;;;;;;32.30;11.00;;;;;;;;;;5078205;28;20569;-61
2020/12/17 10:05:00;;;;;;;33.75;11.15;;;;;;;;;;5079074;28;20794;-61
2020/12/17 10:07:26;;;;;;;35.05;11.15;;;;;;;;;;5098310;28;20185;-61
2020/12/17 10:09:52;;;;;;;36.05;10.23;;;;;;;;;;5096948;28;20177;-60
2020/12/17 10:12:18;;;;;;;30.83;11.27;;;;;;;;;;5084026;28;20197;-61
2020/12/17 10:14:44;;;;;;;31.45;10.75;;;;;;;;;;5097391;28;20602;-61
2020/12/17 10:17:10;;;;;;;29.33;10.50;;;;;;;;;;5097755;28;20182;-61
2020/12/17 10:19:36;;;;;;;25.23;9.75;;;;;;;;;;5097871;28;20196;-61
2020/12/17 10:22:02;;;;;;;27.45;9.82;;;;;;;;;;5096658;28;20178;-61
2020/12/17 10:24:28;;;;;;;24.98;9.60;;;;;;;;;;5097605;28;20280;-61
2020/12/17 10:26:54;;;;;;;24.10;9.00;;;;;;;;;;5089887;28;20209;-61
2020/12/17 10:29:20;;;;;;;22.10;9.63;;;;;;;;;;5078123;28;20182;-61
2020/12/17 10:31:47;;;;;;;29.55;10.25;;;;;;;;;;5093441;28;20197;-60
2020/12/17 10:34:14;;;;;;;24.25;9.32;;;;;;;;;;5097626;28;20610;-60
2020/12/17 10:36:41;;;;;;;25.98;9.02;;;;;;;;;;5097411;28;20182;-61
2020/12/17 10:39:07;;;;;;;23.67;8.77;;;;;;;;;;5096924;28;20182;-60
2020/12/17 10:41:34;;;;;;;20.75;8.55;;;;;;;;;;5105961;28;20256;-61
2020/12/17 10:44:00;;;;;;;19.40;8.25;;;;;;;;;;5087762;28;20186;-61
2020/12/17 10:46:27;;;;;;;18.50;7.50;;;;;;;;;;5086283;28;20182;-61
2020/12/17 10:48:53;;;;;;;16.63;7.50;;;;;;;;;;5097045;28;20177;-61
2020/12/17 10:51:19;;;;;;;16.00;6.93;;;;;;;;;;5097435;28;20201;-61
2020/12/17 10:53:45;;;;;;;15.23;6.85;;;;;;;;;;5096697;28;20194;-61
2020/12/17 10:56:11;;;;;;;14.15;7.40;;;;;;;;;;5092833;28;20192;-61
2020/12/17 10:58:38;;;;;;;13.00;6.47;;;;;;;;;;5096262;28;20257;-61
2020/12/17 11:01:04;;;;;;;14.85;6.53;;;;;;;;;;5067466;28;20174;-61
2020/12/17 11:03:30;;;;;;;15.32;7.32;;;;;;;;;;5098242;28;20182;-61
2020/12/17 11:05:56;;;;;;;12.80;6.57;;;;;;;;;;5096488;28;20671;-61
2020/12/17 11:08:26;;;;;;;13.95;6.53;;;;;;;;;;5095669;28;20192;-61
2020/12/17 11:10:52;;;;;;;11.95;6.22;;;;;;;;;;5097093;28;20200;-61
2020/12/17 11:13:18;;;;;;;11.38;5.97;;;;;;;;;;5096643;28;20462;-61
2020/12/17 11:15:44;;;;;;;11.65;5.78;;;;;;;;;;5088734;28;20233;-61
2020/12/17 11:18:10;;;;;;;12.43;5.88;;;;;;;;;;5083860;28;20209;-61
2020/12/17 11:20:36;;;;;;;10.40;5.88;;;;;;;;;;5081691;28;20664;-61
2020/12/17 11:23:03;;;;;;;15.32;6.05;;;;;;;;;;5095074;28;20189;-61
2020/12/17 11:25:29;;;;;;;11.32;5.85;;;;;;;;;;5094933;28;20174;-61
2020/12/17 11:27:55;;;;;;;12.80;5.78;;;;;;;;;;5095202;28;20178;-60
2020/12/17 11:30:21;;;;;;;9.80;5.50;;;;;;;;;;5087672;28;20289;-61
2020/12/17 11:32:47;;;;;;;13.43;5.90;;;;;;;;;;5087229;28;20209;-61
2020/12/17 11:35:14;;;;;;;7.97;5.22;;;;;;;;;;5096340;28;20571;-61
2020/12/17 11:37:40;;;;;;;8.95;5.45;;;;;;;;;;5086256;28;20205;-61
2020/12/17 11:40:06;;;;;;;8.68;5.35;;;;;;;;;;5093208;28;20569;-61
2020/12/17 11:42:32;;;;;;;9.05;5.10;;;;;;;;;;5112697;28;20181;-60
2020/12/17 11:44:58;;;;;;;9.98;5.00;;;;;;;;;;5115875;28;20220;-61
2020/12/17 11:47:24;;;;;;;7.53;4.72;;;;;;;;;;5116756;28;20181;-61
2020/12/17 11:49:50;;;;;;;8.90;4.53;;;;;;;;;;5089434;28;20185;-61
2020/12/17 11:52:17;;;;;;;7.03;4.30;;;;;;;;;;5089188;28;20242;-61
2020/12/17 11:54:42;;;;;;;6.88;4.72;;;;;;;;;;5075280;28;20178;-61
2020/12/17 11:57:11;;;;;;;8.40;4.88;;;;;;;;;;5076013;28;20174;-61
2020/12/17 11:59:37;;;;;;;6.53;4.70;;;;;;;;;;5084412;28;20359;-61
2020/12/17 12:02:05;;;;;;;8.35;4.95;;;;;;;;;;5096024;28;20273;-61
2020/12/17 12:04:31;;;;;;;6.72;4.55;;;;;;;;;;5093458;28;20247;-61
2020/12/17 12:06:57;;;;;;;8.30;5.00;;;;;;;;;;5088547;28;20182;-61
2020/12/17 12:09:23;;;;;;;8.00;4.88;;;;;;;;;;5095443;28;20197;-61
2020/12/17 12:11:55;;;;;;;7.72;4.47;;;;;;;;;;5094527;28;20186;-60
2020/12/17 12:14:22;;;;;;;8.57;4.63;;;;;;;;;;5095115;28;20185;-61
2020/12/17 12:16:48;;;;;;;8.95;4.50;;;;;;;;;;5095220;28;20180;-61
2020/12/17 12:19:14;;;;;;;9.75;5.10;;;;;;;;;;5095136;28;20185;-61
2020/12/17 12:21:40;;;;;;;38.75;20.08;;;;;;;;;;5091182;28;20250;-61
2020/12/17 12:24:06;;;;;;;451.13;213.10;;;;;;;;;;5088077;28;20194;-61
2020/12/17 12:26:32;;;;;;;647.15;300.15;;;;;;;;;;5094621;28;20189;-61
2020/12/17 12:28:58;;;;;;;732.35;334.98;;;;;;;;;;5095553;28;20180;-61
2020/12/17 12:31:24;;;;;;;600.85;257.85;;;;;;;;;;5095947;28;20197;-61
2020/12/17 12:33:50;;;;;;;521.50;230.20;;;;;;;;;;5094454;28;20213;-61
2020/12/17 12:36:16;;;;;;;461.35;180.98;;;;;;;;;;5095375;28;20170;-61
2020/12/17 12:38:42;;;;;;;449.65;171.68;;;;;;;;;;5082298;28;20177;-61
2020/12/17 12:41:08;;;;;;;365.13;132.63;;;;;;;;;;5095301;28;20185;-61
2020/12/17 12:43:34;;;;;;;374.98;136.73;;;;;;;;;;5095654;28;20584;-61
2020/12/17 12:46:00;;;;;;;319.48;116.53;;;;;;;;;;5095113;28;20467;-61
2020/12/17 12:48:26;;;;;;;284.08;104.63;;;;;;;;;;5082096;28;20193;-61
2020/12/17 12:50:53;;;;;;;242.30;91.70;;;;;;;;;;5094359;28;20186;-61
2020/12/17 12:53:19;;;;;;;230.93;83.93;;;;;;;;;;5091602;28;21609;-61
2020/12/17 12:55:49;;;;;;;226.27;79.05;;;;;;;;;;5086475;28;20615;-61
2020/12/17 12:58:15;;;;;;;198.32;71.30;;;;;;;;;;5082681;28;20196;-61
2020/12/17 13:00:41;;;;;;;184.10;73.47;;;;;;;;;;5088810;28;20591;-61
2020/12/17 13:03:07;;;;;;;207.90;77.05;;;;;;;;;;5094154;28;20197;-61
2020/12/17 13:05:37;;;;;;;194.55;69.00;;;;;;;;;;5087789;28;20181;-61
2020/12/17 13:08:04;;;;;;;166.52;65.28;;;;;;;;;;5100558;28;20491;-61
2020/12/17 13:10:30;;;;;;;323.20;133.43;;;;;;;;;;5087638;28;20201;-61
2020/12/17 13:12:56;;;;;;;873.80;532.70;;;;;;;;;;5098796;28;20209;-61
2020/12/17 13:15:22;;;;;;;585.90;344.48;;;;;;;;;;5083098;28;20188;-61
2020/12/17 13:17:48;;;;;;;673.92;415.63;;;;;;;;;;5098516;28;20185;-61
2020/12/17 13:20:14;;;;;;;479.35;264.77;;;;;;;;;;5099199;28;20193;-61
2020/12/17 13:22:40;;;;;;;391.15;191.93;;;;;;;;;;5098267;28;20186;-61
2020/12/17 13:25:06;;;;;;;276.00;132.95;;;;;;;;;;5097834;28;20185;-61
2020/12/17 13:27:32;;;;;;;229.35;108.40;;;;;;;;;;5082124;28;20568;-61
2020/12/17 13:29:58;;;;;;;160.80;79.78;;;;;;;;;;5086889;28;20242;-61
2020/12/17 13:32:24;;;;;;;128.20;58.83;;;;;;;;;;5099032;28;20197;-61
2020/12/17 13:34:50;;;;;;;100.32;46.80;;;;;;;;;;5098325;28;20186;-61
2020/12/17 13:37:16;;;;;;;82.80;39.20;;;;;;;;;;5098579;28;20178;-61
2020/12/17 13:39:42;;;;;;;83.68;40.50;;;;;;;;;;5098826;28;20246;-61
2020/12/17 13:42:08;;;;;;;74.82;36.03;;;;;;;;;;5096391;28;20502;-61
2020/12/17 13:44:34;;;;;;;74.30;37.75;;;;;;;;;;5085478;28;20190;-61
2020/12/17 13:47:00;;;;;;;77.20;37.78;;;;;;;;;;5095732;28;20243;-61
2020/12/17 13:49:26;;;;;;;71.63;35.83;;;;;;;;;;5098919;28;20245;-61
2020/12/17 13:51:52;;;;;;;53.92;28.95;;;;;;;;;;5097743;28;20190;-61
2020/12/17 13:54:18;;;;;;;57.65;30.45;;;;;;;;;;5097885;28;20178;-61
2020/12/17 13:56:44;;;;;;;63.45;29.95;;;;;;;;;;5098219;28;20184;-61
2020/12/17 13:59:11;;;;;;;50.42;25.67;;;;;;;;;;5096453;28;20236;-61
2020/12/17 14:01:37;;;;;;;54.10;25.25;;;;;;;;;;5088921;28;20174;-61
2020/12/17 14:04:03;;;;;;;47.22;23.00;;;;;;;;;;5097927;28;20189;-61
2020/12/17 14:06:29;;;;;;;44.67;22.60;;;;;;;;;;5098230;28;20192;-61
2020/12/17 14:08:56;;;;;;;44.25;21.70;;;;;;;;;;5098208;28;20185;-61
2020/12/17 14:11:22;;;;;;;39.13;20.60;;;;;;;;;;5096322;28;20181;-61
2020/12/17 14:13:48;;;;;;;36.75;19.50;;;;;;;;;;5077799;28;20205;-61
2020/12/17 14:16:15;;;;;;;36.00;19.30;;;;;;;;;;5095348;28;20220;-61
2020/12/17 14:18:42;;;;;;;39.08;18.52;;;;;;;;;;5097956;28;20194;-63
2020/12/17 14:21:08;;;;;;;35.42;18.58;;;;;;;;;;5096566;28;20178;-62
2020/12/17 14:23:34;;;;;;;34.22;17.40;;;;;;;;;;5097961;28;20189;-62
2020/12/17 14:25:59;;;;;;;32.88;17.60;;;;;;;;;;5090847;28;20445;-62
2020/12/17 14:28:25;;;;;;;29.05;16.80;;;;;;;;;;5089404;28;20197;-62
2020/12/17 14:30:51;;;;;;;32.17;16.20;;;;;;;;;;5096427;28;20184;-62